ADDS METAR Data INFO
IDs: Format: Raw Decoded Include TAF

Data at: 1006 UTC 12 Dec 2017

KEWN 120954Z AUTO 21008KT 10SM CLR 06/03 A2984 RMK AO2 SLP103 T00560033
KEWN 120854Z AUTO 20006KT 10SM CLR 03/02 A2987 RMK AO2 SLP113 T00330017 58030
KEWN 120754Z AUTO 20005KT 10SM CLR 02/01 A2990 RMK AO2 SLP124 T00220006
KEWN 120654Z AUTO 20005KT 10SM CLR 01/00 A2993 RMK AO2 SLP134 T00060000
KEWN 120554Z AUTO 21004KT 10SM CLR 02/01 A2996 RMK AO2 SLP143 T00170006 10039 20000 58022
KEWN 120454Z AUTO 25006KT 10SM CLR 02/01 A2998 RMK AO2 SLP150 T00220006 401281017
KEWN 120354Z AUTO 00000KT 10SM CLR 01/00 A3000 RMK AO2 SLP158 T00060000
KEWN 120254Z AUTO 00000KT 10SM CLR 01/01 A3002 RMK AO2 SLP166 T00060006 58008
KEWN 120154Z 18003KT 10SM CLR 01/01 A3003 RMK AO2 SLP170 T00110006
KEWN 120054Z 00000KT 10SM CLR 03/02 A3005 RMK AO2 SLP174 T00280017
KEWN 112354Z 00000KT 10SM CLR 02/01 A3004 RMK AO2 SLP173 T00170011 10128 20017 55004
KEWN 112254Z 00000KT 10SM CLR 04/02 A3004 RMK AO2 SLP171 T00390022
KEWN 112154Z 00000KT 10SM CLR 07/03 A3005 RMK AO2 SLP175 T00720028
KEWN 112054Z 24003KT 10SM CLR 12/M01 A3006 RMK AO2 SLP177 T01171011 56014
KEWN 111954Z 23006KT 10SM CLR 12/M02 A3006 RMK AO2 SLP179 T01221017
KEWN 111854Z 27005KT 10SM CLR 12/M01 A3008 RMK AO2 SLP185 T01221011
KEWN 111754Z 24004KT 10SM CLR 12/M01 A3010 RMK AO2 SLP191 T01171006 10117 21017 56029
KEWN 111654Z 28004KT 10SM CLR 10/M02 A3012 RMK AO2 SLP199 T01001017
KEWN 111554Z 23003KT 10SM CLR 08/00 A3016 RMK AO2 SLP212 T00830000
KEWN 111454Z 00000KT 10SM CLR 06/00 A3018 RMK AO2 SLP220 T00610000 50003
KEWN 111354Z 26004KT 10SM CLR 03/M01 A3019 RMK AO2 SLP221 T00281006
KEWN 111254Z 00000KT 10SM CLR 00/M02 A3019 RMK AO2 SLP221 T00001017
KEWN 111154Z 00000KT 10SM CLR M01/M02 A3018 RMK AO2 SLP218 T10111022 10006 21017 53005
KEWN 111054Z 20006KT 10SM CLR M01/M02 A3016 RMK AO2 SLP213 T10111022
KEWN 110954Z AUTO 23005KT 10SM CLR 00/M03 A3015 RMK AO2 SLP210 T00001028
KEWN 110854Z AUTO 23004KT 10SM CLR 01/M03 A3016 RMK AO2 SLP213 T00061028 58008
KEWN 110754Z AUTO 22004KT 10SM CLR 00/M03 A3017 RMK AO2 SLP217 T00001028
KEWN 110654Z AUTO 23003KT 10SM CLR 00/M03 A3018 RMK AO2 SLP220 T00001028
KEWN 110554Z AUTO 22003KT 10SM CLR M01/M02 A3018 RMK AO2 SLP220 T10061022 10006 21022 58007
KEWN 110454Z AUTO 21006KT 10SM CLR 00/M02 A3020 RMK AO2 SLP226 T00001022 400671022
KEWN 110354Z AUTO 20004KT 10SM CLR M01/M02 A3021 RMK AO2 SLP228 T10111017
KEWN 110254Z AUTO 00000KT 9SM CLR M02/M02 A3021 RMK AO2 SLP228 T10171017 51002
KEWN 110154Z 18003KT 10SM CLR M01/M02 A3020 RMK AO2 SLP227 T10111017
KEWN 110054Z 17003KT 10SM CLR M01/M01 A3021 RMK AO2 SLP228 T10111011
KEWN 102354Z 00000KT 10SM CLR 00/M01 A3020 RMK AO2 SLP226 T00001011 10067 21006 53012
KEWN 102254Z 20003KT 10SM CLR 01/M01 A3018 RMK AO2 SLP220 T00111006